createdAt,value
2023-02-09T00:00:37.479Z,8.48
2023-02-09T00:03:04.459Z,7.97
2023-02-09T00:05:31.585Z,8.20
2023-02-09T00:07:58.649Z,8.57
2023-02-09T00:10:25.671Z,9.05
2023-02-09T00:13:11.500Z,8.60
2023-02-09T00:15:39.537Z,9.02
2023-02-09T00:18:06.659Z,7.85
2023-02-09T00:20:33.820Z,9.15
2023-02-09T00:23:01.008Z,8.27
2023-02-09T00:25:28.068Z,8.63
2023-02-09T00:28:03.799Z,8.13
2023-02-09T00:30:36.261Z,9.15
2023-02-09T00:33:06.367Z,8.43
2023-02-09T00:35:35.764Z,9.77
2023-02-09T00:38:02.953Z,9.50
2023-02-09T00:40:31.236Z,8.07
2023-02-09T00:42:58.663Z,9.23
2023-02-09T00:45:29.118Z,9.10
2023-02-09T00:47:59.763Z,8.85
2023-02-09T00:50:31.598Z,8.02
2023-02-09T00:53:01.182Z,8.88
2023-02-09T00:55:31.763Z,9.23
2023-02-09T00:58:01.688Z,10.52
2023-02-09T01:00:34.007Z,8.93
2023-02-09T01:03:01.337Z,9.07
2023-02-09T01:05:34.885Z,10.73
2023-02-09T01:08:04.557Z,9.02
2023-02-09T01:10:32.143Z,10.35
2023-02-09T01:13:01.975Z,8.00
2023-02-09T01:15:31.660Z,9.25
2023-02-09T01:17:59.521Z,10.27
2023-02-09T01:20:29.938Z,10.27
2023-02-09T01:22:59.318Z,9.52
2023-02-09T01:25:26.496Z,8.13
2023-02-09T01:27:53.653Z,10.15
2023-02-09T01:30:23.553Z,9.65
2023-02-09T01:32:52.547Z,9.40
2023-02-09T01:35:21.369Z,10.07
2023-02-09T01:37:48.681Z,10.18
2023-02-09T01:40:20.485Z,10.00
2023-02-09T01:42:50.142Z,8.18
2023-02-09T01:45:33.894Z,10.48
2023-02-09T01:48:04.492Z,10.05
2023-02-09T01:50:43.990Z,10.85
2023-02-09T01:53:11.378Z,8.30
2023-02-09T01:55:47.138Z,8.98
2023-02-09T01:58:16.857Z,11.68
2023-02-09T02:00:44.664Z,11.52
2023-02-09T02:03:15.146Z,10.82
2023-02-09T02:05:47.717Z,10.15
2023-02-09T02:08:14.862Z,9.52
2023-02-09T02:10:45.220Z,10.80
2023-02-09T02:13:12.671Z,9.55
2023-02-09T02:15:42.372Z,10.82
2023-02-09T02:18:27.833Z,10.90
2023-02-09T02:21:26.881Z,8.63
2023-02-09T02:24:12.939Z,9.70
2023-02-09T02:26:58.565Z,11.55
2023-02-09T02:29:31.417Z,10.68
2023-02-09T02:32:07.978Z,11.48
2023-02-09T02:34:43.770Z,11.07
2023-02-09T02:37:13.313Z,10.13
2023-02-09T02:39:52.662Z,10.90
2023-02-09T02:42:57.354Z,11.50
2023-02-09T02:45:30.667Z,10.65
2023-02-09T02:48:16.358Z,10.00
2023-02-09T02:51:04.451Z,11.55
2023-02-09T02:53:37.293Z,11.48
2023-02-09T02:56:12.773Z,10.68
2023-02-09T02:58:43.812Z,10.63
2023-02-09T03:01:16.898Z,12.35
2023-02-09T03:03:45.557Z,10.95
2023-02-09T03:06:22.027Z,11.27
2023-02-09T03:08:55.244Z,10.40
2023-02-09T03:11:26.748Z,11.20
2023-02-09T03:14:13.564Z,10.88
2023-02-09T03:16:59.628Z,11.80
2023-02-09T03:19:41.770Z,11.45
2023-02-09T03:22:17.044Z,11.75
2023-02-09T03:24:51.261Z,11.75
2023-02-09T03:27:25.672Z,11.27
2023-02-09T03:29:57.520Z,10.85
2023-02-09T03:32:29.768Z,11.90
2023-02-09T03:34:57.824Z,12.20
2023-02-09T03:37:25.285Z,12.07
2023-02-09T03:39:59.507Z,11.55
2023-02-09T03:42:29.460Z,12.00
2023-02-09T03:44:56.428Z,11.38
2023-02-09T03:47:24.116Z,11.65
2023-02-09T03:49:53.467Z,12.93
2023-02-09T03:52:23.782Z,12.48
2023-02-09T03:54:51.013Z,12.20
2023-02-09T03:57:23.686Z,12.60
2023-02-09T03:59:52.356Z,13.60
2023-02-09T04:02:21.836Z,12.63
2023-02-09T04:04:57.220Z,12.40
2023-02-09T04:07:26.958Z,11.85
2023-02-09T04:09:54.134Z,13.10
2023-02-09T04:12:27.299Z,12.25
2023-02-09T04:14:57.170Z,12.45
2023-02-09T04:17:31.634Z,11.68
2023-02-09T04:20:09.392Z,12.68
2023-02-09T04:22:44.053Z,12.65
2023-02-09T04:25:25.028Z,10.98
2023-02-09T04:27:55.620Z,11.98
2023-02-09T04:30:25.637Z,13.20
2023-02-09T04:32:55.961Z,11.68
2023-02-09T04:35:27.848Z,12.02
2023-02-09T04:38:06.798Z,11.75
2023-02-09T04:40:35.993Z,11.73
2023-02-09T04:43:18.146Z,11.73
2023-02-09T04:45:50.516Z,13.50
2023-02-09T04:48:24.629Z,12.82
2023-02-09T04:50:58.130Z,13.18
2023-02-09T04:53:33.688Z,12.90
2023-02-09T04:56:03.925Z,14.07
2023-02-09T05:01:24.412Z,13.82
2023-02-09T05:03:51.648Z,11.18
2023-02-09T05:06:19.075Z,13.10
2023-02-09T05:08:46.105Z,12.25
2023-02-09T05:11:13.149Z,11.55
2023-02-09T05:13:40.242Z,11.95
2023-02-09T05:16:15.159Z,12.60
2023-02-09T05:18:51.055Z,11.05
2023-02-09T05:21:18.227Z,12.07
2023-02-09T05:23:48.515Z,12.18
2023-02-09T05:26:20.829Z,12.73
2023-02-09T05:28:54.607Z,11.82
2023-02-09T05:31:23.001Z,10.95
2023-02-09T05:33:50.616Z,9.05
2023-02-09T05:36:19.833Z,6.88
2023-02-09T05:38:51.610Z,14.02
2023-02-09T05:41:37.328Z,14.02
2023-02-09T05:44:06.667Z,10.38
2023-02-09T05:46:33.766Z,13.73
2023-02-09T05:49:02.417Z,10.98
2023-02-09T05:51:32.075Z,13.65
2023-02-09T05:53:59.180Z,13.13
2023-02-09T05:56:28.664Z,13.73
2023-02-09T05:58:55.794Z,13.90
2023-02-09T06:01:26.668Z,13.75
2023-02-09T06:04:03.981Z,13.45
2023-02-09T06:06:34.076Z,13.05
2023-02-09T06:09:09.393Z,15.13
2023-02-09T06:11:59.693Z,14.18
2023-02-09T06:14:30.911Z,14.90
2023-02-09T06:17:05.666Z,13.55
2023-02-09T06:19:37.248Z,9.88
2023-02-09T06:22:06.738Z,13.73
2023-02-09T06:24:42.792Z,13.85
2023-02-09T06:27:35.950Z,13.70
2023-02-09T06:30:03.153Z,15.70
2023-02-09T06:32:37.863Z,14.88
2023-02-09T06:35:30.546Z,12.68
2023-02-09T06:38:09.256Z,15.18
2023-02-09T06:40:40.541Z,13.70
2023-02-09T06:43:07.874Z,16.02
2023-02-09T06:45:46.853Z,14.43
2023-02-09T06:48:16.033Z,12.65
2023-02-09T06:50:47.809Z,13.93
2023-02-09T06:53:19.938Z,14.80
2023-02-09T06:55:52.081Z,11.23
2023-02-09T06:58:27.008Z,14.80
2023-02-09T07:01:06.531Z,8.52
2023-02-09T07:03:34.737Z,14.95
2023-02-09T07:09:20.324Z,12.07
2023-02-09T07:11:54.192Z,13.77
2023-02-09T07:14:25.176Z,14.40
2023-02-09T07:16:57.223Z,12.70
2023-02-09T07:19:40.179Z,15.70
2023-02-09T07:22:26.795Z,15.32
2023-02-09T07:24:53.867Z,15.98
2023-02-09T07:27:21.118Z,8.93
2023-02-09T07:29:48.176Z,16.83
2023-02-09T07:32:15.179Z,16.95
2023-02-09T07:34:45.880Z,15.98
2023-02-09T07:39:45.100Z,15.55
2023-02-09T07:42:25.068Z,14.88
2023-02-09T07:47:55.993Z,13.07
2023-02-09T07:50:31.397Z,16.77
2023-02-09T07:52:58.461Z,16.35
2023-02-09T07:55:25.478Z,11.63
2023-02-09T07:58:01.666Z,11.75
2023-02-09T08:00:34.690Z,10.40
2023-02-09T08:03:02.778Z,14.95
2023-02-09T08:05:35.846Z,15.52
2023-02-09T08:08:02.838Z,9.98
2023-02-09T08:10:29.917Z,14.32
2023-02-09T08:13:05.153Z,15.27
2023-02-09T08:15:36.161Z,9.73
2023-02-09T08:18:05.968Z,13.50
2023-02-09T08:20:33.186Z,15.27
2023-02-09T08:23:09.633Z,15.40
2023-02-09T08:25:37.168Z,14.93
2023-02-09T08:28:04.443Z,16.13
2023-02-09T08:30:31.807Z,15.93
2023-02-09T08:32:58.861Z,12.38
2023-02-09T08:35:26.130Z,16.15
2023-02-09T08:37:53.252Z,15.38
2023-02-09T08:40:20.422Z,17.25
2023-02-09T08:42:47.652Z,16.98
2023-02-09T08:45:14.810Z,16.77
2023-02-09T08:47:41.896Z,17.05
2023-02-09T08:50:09.220Z,13.88
2023-02-09T08:52:36.276Z,12.15
2023-02-09T08:55:03.446Z,11.55
2023-02-09T08:57:43.078Z,13.07
2023-02-09T09:00:11.365Z,12.18
2023-02-09T09:02:38.379Z,13.20
2023-02-09T09:05:05.570Z,15.40
2023-02-09T09:07:32.588Z,15.40
2023-02-09T09:09:59.600Z,15.05
2023-02-09T09:12:26.709Z,14.43
2023-02-09T09:14:53.722Z,14.85
2023-02-09T09:17:21.286Z,16.95
2023-02-09T09:19:48.367Z,14.35
2023-02-09T09:22:15.431Z,15.05
2023-02-09T09:24:42.533Z,15.88
2023-02-09T09:27:12.188Z,15.35
2023-02-09T09:29:42.341Z,15.40
2023-02-09T09:32:13.791Z,14.75
2023-02-09T09:34:41.309Z,15.23
2023-02-09T09:37:08.377Z,15.30
2023-02-09T09:39:35.451Z,14.55
2023-02-09T09:42:02.893Z,15.65
2023-02-09T09:44:32.067Z,15.32
2023-02-09T09:47:01.760Z,16.25
2023-02-09T09:49:29.947Z,16.37
2023-02-09T09:51:59.879Z,14.63
2023-02-09T09:54:29.590Z,16.48
2023-02-09T09:56:56.998Z,14.50
2023-02-09T09:59:25.999Z,16.02
2023-02-09T10:01:54.341Z,16.25
2023-02-09T10:04:21.452Z,14.27
2023-02-09T10:06:52.594Z,15.40
2023-02-09T10:09:26.320Z,14.52
2023-02-09T10:11:56.769Z,14.43
2023-02-09T10:14:23.885Z,16.35
2023-02-09T10:30:30.416Z,15.13
2023-02-09T10:32:59.493Z,14.10
2023-02-09T10:35:27.610Z,12.98
2023-02-09T10:38:02.077Z,16.05
2023-02-09T10:40:31.384Z,15.65
2023-02-09T10:42:59.832Z,15.73
2023-02-09T10:45:26.900Z,14.95
2023-02-09T10:48:16.967Z,18.17
2023-02-09T10:50:53.146Z,15.65
2023-02-09T10:53:26.091Z,14.75
2023-02-09T10:55:59.954Z,14.75
2023-02-09T10:58:29.383Z,15.15
2023-02-09T11:01:11.757Z,14.80
2023-02-09T11:03:56.383Z,15.27
2023-02-09T11:06:23.625Z,15.60
2023-02-09T11:08:53.148Z,14.77
2023-02-09T11:11:29.211Z,14.25
2023-02-09T11:13:56.302Z,14.55
2023-02-09T11:16:41.046Z,15.80
2023-02-09T11:19:23.172Z,14.15
2023-02-09T11:21:50.217Z,15.15
2023-02-09T11:24:26.043Z,14.07
2023-02-09T11:27:23.813Z,13.90
2023-02-09T11:29:57.254Z,15.57
2023-02-09T11:32:33.623Z,13.88
2023-02-09T11:35:20.932Z,13.70
2023-02-09T11:38:02.358Z,15.05
2023-02-09T11:40:36.187Z,15.40
2023-02-09T11:43:12.900Z,15.40
2023-02-09T11:45:47.501Z,14.63
2023-02-09T11:48:23.990Z,14.00
2023-02-09T11:50:57.210Z,14.48
2023-02-09T11:53:29.027Z,14.90
2023-02-09T11:55:57.406Z,14.98
2023-02-09T12:01:01.681Z,13.98
2023-02-09T12:03:34.114Z,15.52
2023-02-09T12:06:01.802Z,15.75
2023-02-09T12:08:47.276Z,13.20
2023-02-09T12:11:29.385Z,14.10
2023-02-09T12:14:04.687Z,13.63
2023-02-09T12:16:37.938Z,12.45
2023-02-09T12:19:06.491Z,14.45
2023-02-09T12:21:35.225Z,12.13
2023-02-09T12:24:02.694Z,12.57
2023-02-09T12:26:43.441Z,12.63
2023-02-09T12:31:57.775Z,9.65
2023-02-09T12:34:29.562Z,11.85
2023-02-09T12:37:10.210Z,12.77
2023-02-09T12:42:04.218Z,11.05
2023-02-09T12:44:31.216Z,12.02
2023-02-09T12:46:58.284Z,11.55
2023-02-09T12:49:28.637Z,11.95
2023-02-09T12:52:01.857Z,11.23
2023-02-09T12:54:30.779Z,11.25
2023-02-09T12:57:19.089Z,10.32
2023-02-09T13:00:03.536Z,11.98
2023-02-09T13:02:30.627Z,10.73
2023-02-09T13:05:05.316Z,11.60
2023-02-09T13:07:35.215Z,9.73
2023-02-09T13:10:13.947Z,11.18
2023-02-09T13:12:45.652Z,11.45
2023-02-09T13:15:13.884Z,9.13
2023-02-09T13:17:52.773Z,10.68
2023-02-09T13:20:39.277Z,10.02
2023-02-09T13:23:25.229Z,9.77
2023-02-09T13:25:58.644Z,9.55
2023-02-09T13:28:28.548Z,9.93
2023-02-09T13:30:55.599Z,9.80
2023-02-09T13:33:26.530Z,9.43
2023-02-09T13:36:23.958Z,11.05
2023-02-09T13:38:51.734Z,10.52
2023-02-09T13:41:27.837Z,10.32
2023-02-09T13:43:54.985Z,9.82
2023-02-09T13:46:34.014Z,10.73
2023-02-09T13:49:10.766Z,10.23
2023-02-09T13:51:37.919Z,9.48
2023-02-09T13:54:05.097Z,10.70
2023-02-09T13:56:33.389Z,9.80
2023-02-09T13:59:01.024Z,10.00
2023-02-09T14:01:30.530Z,9.93
2023-02-09T14:04:00.546Z,9.45
2023-02-09T14:06:32.705Z,8.73
2023-02-09T14:09:00.617Z,10.15
2023-02-09T14:11:41.107Z,10.05
2023-02-09T14:14:18.641Z,8.90
2023-02-09T14:16:53.353Z,9.10
2023-02-09T14:19:28.471Z,9.43
2023-02-09T14:21:55.599Z,9.90
2023-02-09T14:24:23.872Z,9.10
2023-02-09T14:26:50.969Z,9.95
2023-02-09T14:29:25.675Z,10.57
2023-02-09T14:31:57.046Z,9.52
2023-02-09T14:34:24.574Z,9.25
2023-02-09T14:36:53.373Z,9.23
2023-02-09T14:39:21.092Z,11.63
2023-02-09T14:42:00.401Z,10.10
2023-02-09T14:44:27.924Z,10.73
2023-02-09T14:46:59.611Z,9.40
2023-02-09T14:49:27.227Z,9.68
2023-02-09T14:52:15.094Z,9.88
2023-02-09T14:54:46.883Z,10.60
2023-02-09T14:57:14.069Z,9.18
2023-02-09T14:59:41.102Z,10.65
2023-02-09T15:02:19.234Z,10.20
2023-02-09T15:04:46.344Z,10.43
2023-02-09T15:07:15.626Z,9.25
2023-02-09T15:09:50.823Z,9.23
2023-02-09T15:12:24.584Z,10.35
2023-02-09T15:14:57.351Z,11.43
2023-02-09T15:17:27.881Z,10.30
2023-02-09T15:20:02.673Z,8.75
2023-02-09T15:22:34.068Z,10.90
2023-02-09T15:25:01.480Z,11.10
2023-02-09T15:27:43.482Z,12.25
2023-02-09T15:30:22.295Z,12.00
2023-02-09T15:32:55.889Z,11.65
2023-02-09T15:35:27.239Z,12.18
2023-02-09T15:37:59.966Z,11.40
2023-02-09T15:40:54.749Z,12.80
2023-02-09T15:43:45.426Z,13.68
2023-02-09T15:46:34.125Z,11.18
2023-02-09T15:49:07.081Z,11.57
2023-02-09T15:51:45.647Z,11.35
2023-02-09T15:54:24.046Z,10.90
2023-02-09T15:56:59.812Z,11.50
2023-02-09T15:59:31.912Z,11.98
2023-02-09T16:02:03.888Z,11.25
2023-02-09T16:04:42.360Z,11.30
2023-02-09T16:07:14.472Z,12.38
2023-02-09T16:09:50.299Z,12.07
2023-02-09T16:12:27.452Z,11.85
2023-02-09T16:17:42.273Z,12.43
2023-02-09T16:20:13.446Z,10.50
2023-02-09T16:22:49.376Z,12.40
2023-02-09T16:25:27.280Z,12.13
2023-02-09T16:27:59.757Z,14.02
2023-02-09T16:30:29.064Z,12.63
2023-02-09T16:32:58.606Z,14.05
2023-02-09T16:35:31.428Z,13.35
2023-02-09T16:37:59.605Z,13.48
2023-02-09T16:40:40.592Z,11.43
2023-02-09T16:43:10.758Z,13.65
2023-02-09T16:45:41.965Z,14.40
2023-02-09T16:48:27.274Z,13.45
2023-02-09T16:50:55.257Z,13.93
2023-02-09T16:53:51.931Z,15.60
2023-02-09T16:56:32.332Z,15.70
2023-02-09T16:59:02.272Z,13.88
2023-02-09T17:01:32.114Z,15.38
2023-02-09T17:04:07.449Z,15.07
2023-02-09T17:06:34.839Z,16.17
2023-02-09T17:09:03.833Z,13.35
2023-02-09T17:11:33.952Z,14.45
2023-02-09T17:14:04.246Z,14.43
2023-02-09T17:16:36.482Z,15.40
2023-02-09T17:19:06.140Z,14.20
2023-02-09T17:21:48.046Z,16.17
2023-02-09T17:24:20.907Z,16.15
2023-02-09T17:26:56.208Z,16.58
2023-02-09T17:29:23.393Z,14.00
2023-02-09T17:31:53.477Z,16.23
2023-02-09T17:34:23.875Z,15.95
2023-02-09T17:36:51.184Z,17.17
2023-02-09T17:39:30.688Z,17.30
2023-02-09T17:42:01.035Z,17.13
2023-02-09T17:44:45.492Z,15.35
2023-02-09T17:47:24.637Z,18.65
2023-02-09T17:49:51.811Z,18.00
2023-02-09T17:52:21.679Z,18.90
2023-02-09T17:54:52.840Z,17.83
2023-02-09T17:57:20.967Z,19.08
2023-02-09T17:59:50.579Z,17.30
2023-02-09T18:02:21.714Z,17.60
2023-02-09T18:04:49.123Z,19.92
2023-02-09T18:07:23.304Z,18.15
2023-02-09T18:09:51.887Z,20.48
2023-02-09T18:15:00.225Z,20.73
2023-02-09T18:17:27.356Z,20.67
2023-02-09T18:19:56.792Z,19.85
2023-02-09T18:22:23.895Z,19.98
2023-02-09T18:25:01.646Z,21.20
2023-02-09T18:27:33.631Z,19.42
2023-02-09T18:30:03.111Z,17.42
2023-02-09T18:32:32.418Z,21.45
2023-02-09T18:35:11.624Z,16.95
2023-02-09T18:37:38.796Z,17.30
2023-02-09T18:40:06.118Z,18.55
2023-02-09T18:42:35.445Z,17.25
2023-02-09T18:45:02.648Z,17.85
2023-02-09T18:47:36.452Z,19.25
2023-02-09T18:50:04.391Z,18.10
2023-02-09T18:52:33.526Z,19.20
2023-02-09T18:55:04.270Z,17.98
2023-02-09T19:00:06.140Z,18.40
2023-02-09T19:02:33.443Z,17.98
2023-02-09T19:05:18.784Z,18.60
2023-02-09T19:07:50.357Z,19.05
2023-02-09T19:10:21.782Z,18.08
2023-02-09T19:12:49.345Z,22.15
2023-02-09T19:15:24.516Z,21.48
2023-02-09T19:17:56.908Z,23.02
2023-02-09T19:20:31.119Z,19.88
2023-02-09T19:23:03.849Z,21.60
2023-02-09T19:25:35.241Z,21.67
2023-02-09T19:28:07.260Z,22.83
2023-02-09T19:30:34.859Z,20.92
2023-02-09T19:33:04.688Z,20.52
2023-02-09T19:35:34.456Z,21.73
2023-02-09T19:38:04.092Z,19.58
2023-02-09T19:40:42.536Z,19.27
2023-02-09T19:43:12.059Z,20.05
2023-02-09T19:45:39.757Z,21.50
2023-02-09T19:48:10.269Z,22.77
2023-02-09T19:50:40.801Z,22.20
2023-02-09T19:53:18.276Z,22.88
2023-02-09T19:55:52.128Z,21.70
2023-02-09T19:58:25.297Z,20.02
2023-02-09T20:00:53.471Z,20.15
2023-02-09T20:03:27.179Z,21.45
2023-02-09T20:05:54.438Z,22.17
2023-02-09T20:08:21.609Z,21.60
2023-02-09T20:10:51.272Z,22.20
2023-02-09T20:13:18.529Z,23.42
2023-02-09T20:15:48.376Z,23.33
2023-02-09T20:18:20.886Z,20.23
2023-02-09T20:20:48.294Z,23.05
2023-02-09T20:23:25.217Z,22.27
2023-02-09T20:25:54.856Z,22.00
2023-02-09T20:28:25.678Z,25.42
2023-02-09T20:31:00.739Z,24.80
2023-02-09T20:33:30.362Z,24.17
2023-02-09T20:35:59.733Z,23.75
2023-02-09T20:38:31.403Z,22.45
2023-02-09T20:40:58.625Z,22.55
2023-02-09T20:43:45.139Z,21.85
2023-02-09T20:46:45.060Z,23.38
2023-02-09T20:49:16.478Z,21.90
2023-02-09T20:51:44.640Z,21.42
2023-02-09T20:54:14.731Z,21.55
2023-02-09T20:56:45.030Z,21.85
2023-02-09T20:59:14.180Z,21.75
2023-02-09T21:01:44.047Z,20.83
2023-02-09T21:04:11.321Z,22.97
2023-02-09T21:06:49.119Z,20.65
2023-02-09T21:09:16.645Z,22.35
2023-02-09T21:11:53.562Z,21.95
2023-02-09T21:14:32.541Z,24.15
2023-02-09T21:17:16.581Z,22.98
2023-02-09T21:19:43.807Z,24.25
2023-02-09T21:22:16.721Z,22.88
2023-02-09T21:24:49.240Z,22.85
2023-02-09T21:27:19.282Z,21.90
2023-02-09T21:29:49.048Z,20.25
2023-02-09T21:32:18.496Z,22.65
2023-02-09T21:34:45.590Z,20.70
2023-02-09T21:37:14.045Z,21.75
2023-02-09T21:39:41.547Z,22.05
2023-02-09T21:42:28.421Z,22.48
2023-02-09T21:45:02.617Z,22.23
2023-02-09T21:47:31.355Z,22.60
2023-02-09T21:49:58.777Z,23.25
2023-02-09T21:52:26.514Z,22.33
2023-02-09T21:54:58.280Z,25.10
2023-02-09T21:57:28.849Z,23.38
2023-02-09T22:00:01.843Z,23.45
2023-02-09T22:02:29.117Z,22.50
2023-02-09T22:04:56.597Z,23.27
2023-02-09T22:07:23.749Z,20.65
2023-02-09T22:09:50.808Z,22.42
2023-02-09T22:12:17.975Z,22.40
2023-02-09T22:14:48.189Z,22.50
2023-02-09T22:17:18.056Z,21.83
2023-02-09T22:19:46.193Z,22.02
2023-02-09T22:22:13.294Z,22.52
2023-02-09T22:24:40.464Z,23.08
2023-02-09T22:27:13.222Z,21.60
2023-02-09T22:29:40.436Z,22.38
2023-02-09T22:32:07.577Z,21.27
2023-02-09T22:34:42.032Z,22.05
2023-02-09T22:37:13.797Z,22.90
2023-02-09T22:39:44.987Z,22.83
2023-02-09T22:42:25.290Z,23.08
2023-02-09T22:44:56.786Z,21.95
2023-02-09T22:47:29.578Z,22.52
2023-02-09T22:49:56.734Z,22.25
2023-02-09T22:52:28.948Z,22.52
2023-02-09T22:54:59.572Z,22.00
2023-02-09T22:57:26.836Z,21.25
2023-02-09T22:59:54.529Z,21.45
2023-02-09T23:02:21.580Z,21.02
2023-02-09T23:04:49.200Z,22.00
2023-02-09T23:07:26.095Z,22.02
2023-02-09T23:09:55.504Z,22.52
2023-02-09T23:12:22.590Z,22.67
2023-02-09T23:14:49.737Z,22.98
2023-02-09T23:17:19.091Z,20.38
2023-02-09T23:19:46.268Z,23.42
2023-02-09T23:22:18.659Z,22.73
2023-02-09T23:24:46.467Z,21.52
2023-02-09T23:27:16.352Z,26.33
2023-02-09T23:29:49.429Z,23.33
2023-02-09T23:32:16.520Z,23.58
2023-02-09T23:34:46.645Z,23.52
2023-02-09T23:37:19.276Z,22.35
2023-02-09T23:40:01.436Z,23.00
2023-02-09T23:42:28.525Z,21.50
2023-02-09T23:44:57.821Z,23.45
2023-02-09T23:47:30.703Z,20.33
2023-02-09T23:50:02.256Z,21.88
2023-02-09T23:52:31.546Z,21.70
2023-02-09T23:55:03.880Z,22.23
2023-02-09T23:57:31.091Z,23.33
